Wheeler, Indiana
Current Conditions -  °F | °C
As of 7:56 AM on Wednesday 26 Nov 2014 (Local Time) from KVPZ Reporting Station
Overcast Overcast  
Wind Chill: 13°   Ceiling: 1200
Heat Index: 23°   Visibility: 10mi
Dew Point: 18°   Wind: 9mph
Humidity: 81%   Direction: 120°ESE
Pressure: 30.16"   Gusts: NA
Location:  41.51°N, 87.18°W
Report Text: KVPZ 261356Z AUTO 12008KT 10SM OVC012 M05/M08 A3016 RMK AO2 SLP226 T10501078 TSNO
Loading
Personal Weather Stations






























Interactive Weather Map New forecast layout! Learn more

10-Day Weather Forecast

Advertisements
Track Severe Weather on mobile